createdAt,value
2018-08-18T00:02:13.075Z,97369.00
2018-08-18T00:04:53.575Z,97365.00
2018-08-18T00:07:34.134Z,97360.00
2018-08-18T00:10:17.645Z,97351.00
2018-08-18T00:12:57.948Z,97354.00
2018-08-18T00:15:40.435Z,97362.00
2018-08-18T00:18:20.959Z,97351.00
2018-08-18T00:21:01.492Z,97357.00
2018-08-18T00:23:58.884Z,97361.00
2018-08-18T00:26:41.263Z,97356.00
2018-08-18T00:29:21.566Z,97361.00
2018-08-18T00:32:02.069Z,97355.00
2018-08-18T00:34:47.367Z,97355.00
2018-08-18T00:37:27.782Z,97362.00
2018-08-18T00:40:10.667Z,97360.00
2018-08-18T00:42:51.095Z,97351.00
2018-08-18T00:45:31.525Z,97366.00
2018-08-18T00:48:13.145Z,97359.00
2018-08-18T00:50:53.627Z,97369.00
2018-08-18T00:53:33.929Z,97368.00
2018-08-18T00:56:14.709Z,97376.00
2018-08-18T00:58:56.166Z,97373.00
2018-08-18T01:01:37.153Z,97365.00
2018-08-18T01:04:17.534Z,97375.00
2018-08-18T01:06:58.052Z,97377.00
2018-08-18T01:09:43.251Z,97377.00
2018-08-18T01:12:24.376Z,97381.00
2018-08-18T01:15:08.869Z,97384.00
2018-08-18T01:17:49.178Z,97383.00
2018-08-18T01:20:29.811Z,97376.00
2018-08-18T01:23:11.249Z,97380.00
2018-08-18T01:25:51.544Z,97378.00
2018-08-18T01:28:31.971Z,97370.00
2018-08-18T01:31:19.095Z,97376.00
2018-08-18T01:33:59.534Z,97380.00
2018-08-18T01:36:41.195Z,97380.00
2018-08-18T01:39:22.068Z,97387.00
2018-08-18T01:42:02.608Z,97382.00
2018-08-18T01:44:43.155Z,97386.00
2018-08-18T01:47:23.465Z,97378.00
2018-08-18T01:50:10.331Z,97385.00
2018-08-18T01:52:50.763Z,97380.00
2018-08-18T01:55:31.325Z,97379.00
2018-08-18T01:58:13.390Z,97381.00
2018-08-18T02:00:53.799Z,97381.00
2018-08-18T02:03:34.299Z,97386.00
2018-08-18T02:06:14.756Z,97391.00
2018-08-18T02:08:59.467Z,97389.00
2018-08-18T02:11:41.877Z,97384.00
2018-08-18T02:14:23.016Z,97393.00
2018-08-18T02:43:26.255Z,97393.00
2018-08-18T02:46:22.137Z,97399.00
2018-08-18T02:49:03.317Z,97389.00
2018-08-18T02:51:45.072Z,97395.00
2018-08-18T02:54:30.072Z,97414.00
2018-08-18T02:57:13.456Z,97403.00
2018-08-18T02:59:56.958Z,97412.00
2018-08-18T03:02:37.338Z,97412.00
2018-08-18T03:05:17.972Z,97413.00
2018-08-18T03:07:58.578Z,97411.00
2018-08-18T03:10:38.933Z,97415.00
2018-08-18T03:13:19.412Z,97409.00
2018-08-18T03:16:01.043Z,97413.00
2018-08-18T03:18:46.353Z,97411.00
2018-08-18T03:21:32.165Z,97410.00
2018-08-18T03:24:24.723Z,97413.00
2018-08-18T03:27:05.138Z,97416.00
2018-08-18T03:29:52.133Z,97417.00
2018-08-18T03:32:32.578Z,97421.00
2018-08-18T03:35:14.370Z,97428.00
2018-08-18T03:37:54.906Z,97436.00
2018-08-18T03:40:35.380Z,97427.00
2018-08-18T03:43:16.483Z,97423.00
2018-08-18T03:45:57.020Z,97436.00
2018-08-18T03:48:37.536Z,97434.00
2018-08-18T03:51:18.077Z,97429.00
2018-08-18T03:53:58.444Z,97431.00
2018-08-18T03:56:40.275Z,97441.00
2018-08-18T03:59:20.723Z,97445.00
2018-08-18T04:02:01.754Z,97444.00
2018-08-18T04:04:44.607Z,97446.00
2018-08-18T04:07:25.217Z,97448.00
2018-08-18T04:10:07.808Z,97456.00
2018-08-18T04:12:48.420Z,97448.00
2018-08-18T04:15:28.772Z,97453.00
2018-08-18T04:18:13.372Z,97451.00
2018-08-18T04:20:53.971Z,97453.00
2018-08-18T04:23:34.407Z,97455.00
2018-08-18T04:26:16.167Z,97458.00
2018-08-18T04:28:57.136Z,97459.00
2018-08-18T04:31:37.619Z,97459.00
2018-08-18T04:34:18.131Z,97465.00
2018-08-18T04:36:58.972Z,97472.00
2018-08-18T04:39:40.616Z,97471.00
2018-08-18T04:42:21.049Z,97472.00
2018-08-18T04:45:01.486Z,97470.00
2018-08-18T04:47:44.513Z,97475.00
2018-08-18T04:50:25.178Z,97476.00
2018-08-18T04:53:05.670Z,97475.00
2018-08-18T04:55:46.087Z,97473.00
2018-08-18T04:58:26.831Z,97478.00
2018-08-18T05:01:08.196Z,97472.00
2018-08-18T05:04:02.188Z,97480.00
2018-08-18T05:06:44.905Z,97482.00
2018-08-18T05:09:25.388Z,97486.00
2018-08-18T05:12:05.935Z,97489.00
2018-08-18T05:14:46.490Z,97491.00
2018-08-18T05:17:26.916Z,97484.00
2018-08-18T05:20:16.419Z,97490.00
2018-08-18T05:23:18.094Z,97495.00
2018-08-18T05:25:58.531Z,97496.00
2018-08-18T05:28:40.290Z,97491.00
2018-08-18T05:31:21.832Z,97499.00
2018-08-18T05:34:02.373Z,97502.00
2018-08-18T05:36:44.920Z,97499.00
2018-08-18T05:39:25.345Z,97504.00
2018-08-18T05:42:05.700Z,97503.00
2018-08-18T05:44:46.132Z,97503.00
2018-08-18T05:47:27.115Z,97512.00
2018-08-18T05:50:07.560Z,97509.00
2018-08-18T05:52:48.689Z,97519.00
2018-08-18T05:55:29.422Z,97522.00
2018-08-18T05:58:11.683Z,97538.00
2018-08-18T06:00:57.969Z,97539.00
2018-08-18T06:03:38.597Z,97535.00
2018-08-18T06:06:19.155Z,97537.00
2018-08-18T06:08:59.504Z,97552.00
2018-08-18T06:11:41.442Z,97561.00
2018-08-18T06:14:22.076Z,97541.00
2018-08-18T06:17:02.555Z,97555.00
2018-08-18T06:19:44.535Z,97546.00
2018-08-18T06:22:25.105Z,97542.00
2018-08-18T06:25:06.014Z,97547.00
2018-08-18T06:27:46.488Z,97548.00
2018-08-18T06:30:26.837Z,97549.00
2018-08-18T06:33:07.400Z,97561.00
2018-08-18T06:35:47.924Z,97543.00
2018-08-18T06:38:28.449Z,97552.00
2018-08-18T06:41:09.103Z,97558.00
2018-08-18T06:43:50.329Z,97555.00
2018-08-18T06:46:31.378Z,97560.00
2018-08-18T06:49:15.689Z,97556.00
2018-08-18T06:51:56.215Z,97560.00
2018-08-18T06:54:36.928Z,97567.00
2018-08-18T06:57:33.092Z,97574.00
2018-08-18T07:00:17.888Z,97583.00
2018-08-18T07:02:59.117Z,97580.00
2018-08-18T07:05:44.786Z,97580.00
2018-08-18T07:08:25.603Z,97595.00
2018-08-18T07:11:06.496Z,97595.00
2018-08-18T07:13:47.798Z,97585.00
2018-08-18T07:16:28.343Z,97590.00
2018-08-18T07:19:08.915Z,97595.00
2018-08-18T07:21:49.478Z,97596.00
2018-08-18T07:24:29.982Z,97605.00
2018-08-18T07:27:11.455Z,97602.00
2018-08-18T07:29:51.998Z,97605.00
2018-08-18T07:32:32.485Z,97607.00
2018-08-18T07:35:14.545Z,97605.00
2018-08-18T07:37:54.968Z,97605.00
2018-08-18T07:40:45.650Z,97610.00
2018-08-18T07:43:29.142Z,97615.00
2018-08-18T07:46:10.357Z,97618.00
2018-08-18T07:48:50.666Z,97622.00
2018-08-18T07:51:31.192Z,97627.00
2018-08-18T07:54:13.517Z,97627.00
2018-08-18T07:56:54.052Z,97628.00
2018-08-18T07:59:34.653Z,97632.00
2018-08-18T08:02:16.559Z,97622.00
2018-08-18T08:04:57.622Z,97636.00
2018-08-18T08:07:38.185Z,97643.00
2018-08-18T08:10:19.249Z,97641.00
2018-08-18T08:12:59.986Z,97644.00
2018-08-18T08:15:41.664Z,97643.00
2018-08-18T08:18:22.307Z,97650.00
2018-08-18T08:21:02.787Z,97648.00
2018-08-18T08:23:44.629Z,97650.00
2018-08-18T08:26:25.222Z,97658.00
2018-08-18T08:29:05.723Z,97648.00
2018-08-18T08:31:46.320Z,97658.00
2018-08-18T08:34:29.573Z,97656.00
2018-08-18T08:37:10.478Z,97658.00
2018-08-18T08:39:50.984Z,97660.00
2018-08-18T08:42:31.545Z,97657.00
2018-08-18T08:45:16.333Z,97666.00
2018-08-18T08:47:57.281Z,97665.00
2018-08-18T08:50:37.977Z,97668.00
2018-08-18T08:53:19.265Z,97665.00
2018-08-18T08:55:59.728Z,97663.00
2018-08-18T08:58:45.791Z,97662.00
2018-08-18T09:01:26.421Z,97666.00
2018-08-18T09:04:07.059Z,97665.00
2018-08-18T09:06:56.755Z,97668.00
2018-08-18T09:09:37.240Z,97674.00
2018-08-18T09:12:17.788Z,97672.00
2018-08-18T09:14:58.305Z,97677.00
2018-08-18T09:17:38.988Z,97677.00
2018-08-18T09:20:20.179Z,97674.00
2018-08-18T09:23:02.053Z,97673.00
2018-08-18T09:25:44.387Z,97673.00
2018-08-18T09:28:25.043Z,97661.00
2018-08-18T09:31:06.360Z,97673.00
2018-08-18T09:33:46.869Z,97673.00
2018-08-18T09:36:27.464Z,97663.00
2018-08-18T09:39:15.516Z,97670.00
2018-08-18T09:41:55.929Z,97670.00
2018-08-18T09:44:41.448Z,97666.00
2018-08-18T09:47:21.932Z,97674.00
2018-08-18T09:50:02.421Z,97670.00
2018-08-18T09:52:44.577Z,97670.00
2018-08-18T09:55:25.178Z,97666.00
2018-08-18T09:58:05.856Z,97670.00
2018-08-18T10:00:46.423Z,97673.00
2018-08-18T10:03:26.953Z,97677.00
2018-08-18T10:06:07.596Z,97673.00
2018-08-18T10:08:48.074Z,97671.00
2018-08-18T10:11:28.404Z,97674.00
2018-08-18T10:14:08.936Z,97674.00
2018-08-18T10:16:49.708Z,97664.00
2018-08-18T10:19:32.632Z,97666.00
2018-08-18T10:22:14.442Z,97668.00
2018-08-18T10:24:54.928Z,97670.00
2018-08-18T10:27:35.479Z,97674.00
2018-08-18T10:30:16.524Z,97671.00
2018-08-18T10:32:57.054Z,97675.00
2018-08-18T10:35:37.635Z,97672.00
2018-08-18T10:38:20.040Z,97681.00
2018-08-18T10:41:03.759Z,97675.00
2018-08-18T10:43:45.348Z,97674.00
2018-08-18T10:46:25.806Z,97680.00
2018-08-18T10:49:06.147Z,97687.00
2018-08-18T10:52:03.791Z,97674.00
2018-08-18T10:54:46.049Z,97673.00
2018-08-18T10:57:45.764Z,97674.00
2018-08-18T11:00:28.867Z,97675.00
2018-08-18T11:03:13.800Z,97672.00
2018-08-18T11:05:54.319Z,97675.00
2018-08-18T11:08:35.007Z,97674.00
2018-08-18T11:11:18.848Z,97675.00
2018-08-18T11:13:59.556Z,97672.00
2018-08-18T11:16:41.427Z,97678.00
2018-08-18T11:19:22.491Z,97675.00
2018-08-18T11:22:50.021Z,97678.00
2018-08-18T11:25:35.123Z,97672.00
2018-08-18T11:28:17.554Z,97680.00
2018-08-18T11:30:58.158Z,97680.00
2018-08-18T11:33:43.966Z,97679.00
2018-08-18T11:36:24.557Z,97676.00
2018-08-18T11:39:08.319Z,97676.00
2018-08-18T11:41:48.948Z,97681.00
2018-08-18T11:44:29.416Z,97677.00
2018-08-18T11:47:11.314Z,97677.00
2018-08-18T11:49:51.875Z,97674.00
2018-08-18T11:52:34.276Z,97679.00
2018-08-18T11:55:16.569Z,97675.00
2018-08-18T11:57:58.527Z,97680.00
2018-08-18T12:01:10.431Z,97682.00
2018-08-18T12:03:50.837Z,97683.00
2018-08-18T12:06:31.266Z,97679.00
2018-08-18T12:09:14.769Z,97680.00
2018-08-18T12:11:55.601Z,97679.00
2018-08-18T12:14:36.320Z,97681.00
2018-08-18T12:17:17.294Z,97680.00
2018-08-18T12:20:03.384Z,97676.00
2018-08-18T12:22:45.393Z,97678.00
2018-08-18T12:25:25.936Z,97674.00
2018-08-18T12:28:06.943Z,97675.00
2018-08-18T12:30:47.440Z,97665.00
2018-08-18T12:33:28.676Z,97671.00
2018-08-18T12:36:10.274Z,97669.00
2018-08-18T12:38:52.985Z,97663.00
2018-08-18T12:41:33.750Z,97664.00
2018-08-18T12:44:15.880Z,97668.00
2018-08-18T12:46:56.208Z,97661.00
2018-08-18T12:49:36.764Z,97656.00
2018-08-18T12:52:17.187Z,97652.00
2018-08-18T12:54:57.818Z,97657.00
2018-08-18T12:57:41.908Z,97654.00
2018-08-18T13:00:22.382Z,97651.00
2018-08-18T13:03:02.692Z,97653.00
2018-08-18T13:05:44.548Z,97654.00
2018-08-18T13:08:24.904Z,97650.00
2018-08-18T13:11:05.485Z,97646.00
2018-08-18T13:13:46.146Z,97653.00
2018-08-18T13:16:26.589Z,97641.00
2018-08-18T13:19:07.705Z,97644.00
2018-08-18T13:21:48.201Z,97655.00
2018-08-18T13:24:31.643Z,97651.00
2018-08-18T13:27:14.325Z,97645.00
2018-08-18T13:29:54.807Z,97644.00
2018-08-18T13:32:35.327Z,97647.00
2018-08-18T13:35:16.259Z,97642.00
2018-08-18T13:37:56.698Z,97646.00
2018-08-18T13:40:37.220Z,97646.00
2018-08-18T13:43:17.739Z,97641.00
2018-08-18T13:45:58.219Z,97643.00
2018-08-18T13:48:38.756Z,97640.00
2018-08-18T13:51:19.696Z,97636.00
2018-08-18T13:54:03.638Z,97646.00
2018-08-18T13:56:45.603Z,97645.00
2018-08-18T13:59:47.508Z,97636.00
2018-08-18T14:02:28.243Z,97642.00
2018-08-18T14:05:21.416Z,97639.00
2018-08-18T14:08:03.296Z,97635.00
2018-08-18T14:10:45.052Z,97642.00
2018-08-18T14:13:25.598Z,97639.00
2018-08-18T14:16:05.889Z,97643.00
2018-08-18T14:18:46.459Z,97647.00
2018-08-18T14:21:27.054Z,97646.00
2018-08-18T14:24:07.595Z,97637.00
2018-08-18T14:26:52.261Z,97648.00
2018-08-18T14:29:33.699Z,97650.00
2018-08-18T14:32:21.123Z,97651.00
2018-08-18T14:35:05.763Z,97652.00
2018-08-18T14:37:46.393Z,97652.00
2018-08-18T14:40:26.966Z,97652.00
2018-08-18T14:43:08.375Z,97652.00
2018-08-18T14:45:48.886Z,97648.00
2018-08-18T14:48:29.367Z,97645.00
2018-08-18T14:51:11.529Z,97646.00
2018-08-18T14:53:52.242Z,97651.00
2018-08-18T14:56:33.676Z,97659.00
2018-08-18T14:59:15.713Z,97651.00
2018-08-18T15:01:56.226Z,97656.00
2018-08-18T15:04:37.244Z,97650.00
2018-08-18T15:08:20.310Z,97656.00
2018-08-18T15:11:00.831Z,97649.00
2018-08-18T15:13:43.371Z,97651.00
2018-08-18T15:16:23.800Z,97651.00
2018-08-18T15:19:04.393Z,97643.00
2018-08-18T15:21:46.555Z,97640.00
2018-08-18T15:24:26.938Z,97643.00
2018-08-18T15:27:07.595Z,97644.00
2018-08-18T15:29:47.941Z,97642.00
2018-08-18T15:32:28.533Z,97646.00
2018-08-18T15:35:10.344Z,97642.00
2018-08-18T15:37:50.980Z,97645.00
2018-08-18T15:40:31.487Z,97634.00
2018-08-18T15:43:14.600Z,97638.00
2018-08-18T15:46:01.500Z,97635.00
2018-08-18T15:48:44.368Z,97642.00
2018-08-18T15:51:24.756Z,97640.00
2018-08-18T15:54:05.353Z,97636.00
2018-08-18T15:56:46.148Z,97632.00
2018-08-18T15:59:26.683Z,97631.00
2018-08-18T16:02:08.823Z,97633.00
2018-08-18T16:04:49.364Z,97629.00
2018-08-18T16:07:30.082Z,97622.00
2018-08-18T16:10:11.761Z,97622.00
2018-08-18T16:12:52.180Z,97619.00
2018-08-18T16:15:32.662Z,97626.00
2018-08-18T16:18:14.500Z,97622.00
2018-08-18T16:20:54.956Z,97615.00
2018-08-18T16:23:35.408Z,97617.00
2018-08-18T16:26:46.536Z,97624.00
2018-08-18T16:29:27.005Z,97622.00
2018-08-18T16:32:19.603Z,97622.00
2018-08-18T16:35:05.406Z,97635.00
2018-08-18T16:37:46.295Z,97619.00
2018-08-18T16:40:26.712Z,97633.00
2018-08-18T16:43:10.239Z,97631.00
2018-08-18T16:45:50.760Z,97632.00
2018-08-18T16:48:31.397Z,97641.00
2018-08-18T16:51:14.420Z,97638.00
2018-08-18T16:53:54.944Z,97639.00
2018-08-18T16:56:35.439Z,97633.00
2018-08-18T16:59:16.357Z,97631.00
2018-08-18T17:01:56.654Z,97636.00
2018-08-18T17:04:37.255Z,97638.00
2018-08-18T17:07:23.720Z,97635.00
2018-08-18T17:10:04.380Z,97639.00
2018-08-18T17:12:46.146Z,97629.00
2018-08-18T17:15:26.642Z,97631.00
2018-08-18T17:18:07.255Z,97633.00
2018-08-18T17:21:03.536Z,97634.00
2018-08-18T17:23:45.684Z,97641.00
2018-08-18T17:26:27.279Z,97648.00
2018-08-18T17:29:07.872Z,97650.00
2018-08-18T17:31:48.516Z,97657.00
2018-08-18T17:34:28.961Z,97667.00
2018-08-18T17:37:10.044Z,97665.00
2018-08-18T17:39:50.636Z,97658.00
2018-08-18T17:42:31.155Z,97665.00
2018-08-18T17:45:14.655Z,97668.00
2018-08-18T17:47:55.241Z,97673.00
2018-08-18T17:50:37.867Z,97672.00
2018-08-18T17:53:18.267Z,97676.00
2018-08-18T17:56:02.930Z,97679.00
2018-08-18T17:58:44.351Z,97681.00
2018-08-18T18:01:24.984Z,97688.00
2018-08-18T18:04:05.445Z,97687.00
2018-08-18T18:06:46.099Z,97691.00
2018-08-18T18:09:30.462Z,97697.00
2018-08-18T18:12:30.588Z,97699.00
2018-08-18T18:15:26.692Z,97704.00
2018-08-18T18:18:11.749Z,97706.00
2018-08-18T18:20:53.381Z,97706.00
2018-08-18T18:23:34.952Z,97701.00
2018-08-18T18:26:16.204Z,97713.00
2018-08-18T18:28:56.678Z,97715.00
2018-08-18T18:31:37.249Z,97713.00
2018-08-18T18:34:17.725Z,97721.00
2018-08-18T18:36:58.397Z,97732.00
2018-08-18T18:39:55.092Z,97729.00
2018-08-18T18:42:35.686Z,97715.00
2018-08-18T18:45:17.083Z,97728.00
2018-08-18T18:47:57.892Z,97742.00
2018-08-18T18:50:38.580Z,97743.00
2018-08-18T18:53:19.764Z,97730.00
2018-08-18T18:56:00.897Z,97729.00
2018-08-18T18:58:43.661Z,97735.00
2018-08-18T19:01:26.704Z,97738.00
2018-08-18T19:04:07.378Z,97735.00
2018-08-18T19:07:00.935Z,97739.00
2018-08-18T19:09:43.267Z,97741.00
2018-08-18T19:12:23.908Z,97737.00
2018-08-18T19:15:04.589Z,97737.00
2018-08-18T19:17:46.239Z,97740.00
2018-08-18T19:20:29.062Z,97742.00
2018-08-18T19:23:15.387Z,97742.00
2018-08-18T19:25:55.737Z,97744.00
2018-08-18T19:28:36.242Z,97736.00
2018-08-18T19:31:21.009Z,97741.00
2018-08-18T19:34:14.433Z,97737.00
2018-08-18T19:37:11.664Z,97730.00
2018-08-18T19:39:53.667Z,97739.00
2018-08-18T19:42:34.138Z,97747.00
2018-08-18T19:45:23.228Z,97744.00
2018-08-18T19:48:04.159Z,97754.00
2018-08-18T19:50:54.552Z,97747.00
2018-08-18T19:53:35.952Z,97751.00
2018-08-18T19:56:16.368Z,97748.00
2018-08-18T19:58:56.877Z,97747.00
2018-08-18T20:01:37.339Z,97748.00
2018-08-18T20:04:17.906Z,97748.00
2018-08-18T20:06:58.530Z,97756.00
2018-08-18T20:09:40.435Z,97752.00
2018-08-18T20:12:21.144Z,97752.00
2018-08-18T20:15:01.859Z,97751.00
2018-08-18T20:17:44.787Z,97752.00
2018-08-18T20:20:25.475Z,97746.00
2018-08-18T20:23:06.006Z,97751.00
2018-08-18T20:25:47.175Z,97751.00
2018-08-18T20:28:27.503Z,97760.00
2018-08-18T20:31:08.049Z,97757.00
2018-08-18T20:33:49.751Z,97765.00
2018-08-18T20:36:30.201Z,97751.00
2018-08-18T20:39:13.380Z,97757.00
2018-08-18T20:41:53.972Z,97762.00
2018-08-18T20:44:34.399Z,97756.00
2018-08-18T20:47:16.395Z,97767.00
2018-08-18T20:49:57.596Z,97765.00
2018-08-18T20:52:38.634Z,97767.00
2018-08-18T20:55:19.188Z,97765.00
2018-08-18T20:57:59.725Z,97767.00
2018-08-18T21:00:41.248Z,97760.00
2018-08-18T21:03:21.888Z,97766.00
2018-08-18T21:06:02.640Z,97772.00
2018-08-18T21:08:44.824Z,97775.00
2018-08-18T21:11:25.852Z,97769.00
2018-08-18T21:14:06.249Z,97770.00
2018-08-18T21:16:46.859Z,97773.00
2018-08-18T21:19:27.852Z,97762.00
2018-08-18T21:22:13.366Z,97770.00
2018-08-18T21:24:53.952Z,97769.00
2018-08-18T21:27:34.496Z,97779.00
2018-08-18T21:30:18.109Z,97784.00
2018-08-18T21:32:58.686Z,97774.00
2018-08-18T21:35:40.426Z,97771.00
2018-08-18T21:38:21.028Z,97775.00
2018-08-18T21:41:01.669Z,97775.00
2018-08-18T21:43:45.715Z,97773.00
2018-08-18T21:46:26.174Z,97775.00
2018-08-18T21:49:06.545Z,97784.00
2018-08-18T21:51:47.128Z,97779.00
2018-08-18T21:54:28.913Z,97792.00
2018-08-18T21:57:10.192Z,97788.00
2018-08-18T21:59:57.844Z,97787.00
2018-08-18T22:02:43.261Z,97782.00
2018-08-18T22:05:23.852Z,97787.00
2018-08-18T22:08:04.387Z,97789.00
2018-08-18T22:10:50.216Z,97786.00
2018-08-18T22:13:41.688Z,97787.00
2018-08-18T22:16:22.831Z,97791.00
2018-08-18T22:19:03.923Z,97778.00
2018-08-18T22:21:45.394Z,97775.00
2018-08-18T22:24:25.919Z,97780.00
2018-08-18T22:27:06.388Z,97783.00
2018-08-18T22:29:46.983Z,97781.00
2018-08-18T22:32:27.453Z,97783.00
2018-08-18T22:35:10.136Z,97782.00
2018-08-18T22:37:50.616Z,97782.00
2018-08-18T22:40:31.207Z,97787.00
2018-08-18T22:43:14.320Z,97781.00
2018-08-18T22:45:55.366Z,97782.00
2018-08-18T22:48:36.297Z,97781.00
2018-08-18T22:51:17.388Z,97776.00
2018-08-18T22:53:58.157Z,97781.00
2018-08-18T22:56:40.106Z,97774.00
2018-08-18T22:59:20.416Z,97778.00
2018-08-18T23:02:01.231Z,97773.00
2018-08-18T23:04:44.274Z,97779.00
2018-08-18T23:07:24.679Z,97772.00
2018-08-18T23:10:05.804Z,97779.00
2018-08-18T23:12:46.940Z,97782.00
2018-08-18T23:15:27.548Z,97787.00
2018-08-18T23:18:08.630Z,97779.00
2018-08-18T23:20:48.963Z,97782.00
2018-08-18T23:23:29.511Z,97784.00
2018-08-18T23:26:11.004Z,97782.00
2018-08-18T23:28:51.532Z,97780.00
2018-08-18T23:31:32.066Z,97781.00
2018-08-18T23:34:14.387Z,97781.00
2018-08-18T23:36:56.291Z,97782.00
2018-08-18T23:39:37.163Z,97790.00
2018-08-18T23:42:20.507Z,97782.00
2018-08-18T23:45:00.903Z,97781.00
2018-08-18T23:47:47.448Z,97782.00
2018-08-18T23:50:27.944Z,97773.00
2018-08-18T23:53:13.473Z,97773.00
2018-08-18T23:55:59.651Z,97779.00
2018-08-18T23:58:41.119Z,97770.00
